createdAt,value
2022-11-01T00:00:42.863Z,17.90
2022-11-01T00:03:11.122Z,17.75
2022-11-01T00:05:40.733Z,18.02
2022-11-01T00:08:09.062Z,18.83
2022-11-01T00:10:37.773Z,23.80
2022-11-01T00:13:06.124Z,24.67
2022-11-01T00:15:34.629Z,28.17
2022-11-01T00:18:03.148Z,28.00
2022-11-01T00:20:32.786Z,24.42
2022-11-01T00:23:05.629Z,26.48
2022-11-01T00:25:34.690Z,23.60
2022-11-01T00:28:03.748Z,24.73
2022-11-01T00:30:32.404Z,24.45
2022-11-01T00:33:01.002Z,24.77
2022-11-01T00:35:30.046Z,25.75
2022-11-01T00:37:59.853Z,23.33
2022-11-01T00:40:30.495Z,24.90
2022-11-01T00:42:59.737Z,22.23
2022-11-01T00:45:28.546Z,25.23
2022-11-01T00:47:58.148Z,30.25
2022-11-01T00:50:26.596Z,24.83
2022-11-01T00:52:55.971Z,27.33
2022-11-01T00:55:24.996Z,28.77
2022-11-01T00:57:54.966Z,27.30
2022-11-01T01:00:24.014Z,29.83
2022-11-01T01:02:52.264Z,29.27
2022-11-01T01:05:23.081Z,28.63
2022-11-01T01:07:52.493Z,28.90
2022-11-01T01:10:21.401Z,28.92
2022-11-01T01:12:51.072Z,26.52
2022-11-01T01:15:21.926Z,27.65
2022-11-01T01:17:51.183Z,29.98
2022-11-01T01:20:20.522Z,23.73
2022-11-01T01:22:57.015Z,28.13
2022-11-01T01:25:26.177Z,18.40
2022-11-01T01:27:55.817Z,17.13
2022-11-01T01:30:27.222Z,18.92
2022-11-01T01:32:56.816Z,17.05
2022-11-01T01:35:25.399Z,18.33
2022-11-01T01:37:55.432Z,19.83
2022-11-01T01:40:23.693Z,23.02
2022-11-01T01:42:53.139Z,17.00
2022-11-01T01:45:30.555Z,22.33
2022-11-01T01:48:09.262Z,20.75
2022-11-01T01:50:43.960Z,21.40
2022-11-01T01:53:19.129Z,25.77
2022-11-01T01:55:55.040Z,24.25
2022-11-01T01:58:29.286Z,20.45
2022-11-01T02:01:01.103Z,16.88
2022-11-01T02:03:33.157Z,19.58
2022-11-01T02:06:08.349Z,20.02
2022-11-01T02:08:38.434Z,19.15
2022-11-01T02:11:10.365Z,21.25
2022-11-01T02:13:39.321Z,20.45
2022-11-01T02:16:26.819Z,22.80
2022-11-01T02:19:08.062Z,17.42
2022-11-01T02:21:52.298Z,19.08
2022-11-01T02:24:56.204Z,19.77
2022-11-01T02:27:33.678Z,16.98
2022-11-01T02:30:14.291Z,16.17
2022-11-01T02:32:54.313Z,15.63
2022-11-01T02:35:28.916Z,11.95
2022-11-01T02:38:03.407Z,8.10
2022-11-01T02:40:42.873Z,7.78
2022-11-01T02:43:17.748Z,10.57
2022-11-01T02:45:49.570Z,11.98
2022-11-01T02:48:21.860Z,13.40
2022-11-01T02:50:54.841Z,14.00
2022-11-01T02:53:23.187Z,10.52
2022-11-01T02:55:53.601Z,11.63
2022-11-01T02:58:25.080Z,9.98
2022-11-01T03:00:56.322Z,7.53
2022-11-01T03:03:35.094Z,7.28
2022-11-01T03:06:14.634Z,8.13
2022-11-01T03:08:46.378Z,8.43
2022-11-01T03:11:19.453Z,7.10
2022-11-01T03:14:00.185Z,9.38
2022-11-01T03:16:36.669Z,10.45
2022-11-01T03:19:25.479Z,10.48
2022-11-01T03:22:01.739Z,11.82
2022-11-01T03:24:33.207Z,14.13
2022-11-01T03:27:11.573Z,13.23
2022-11-01T03:29:43.371Z,20.40
2022-11-01T03:32:12.951Z,19.95
2022-11-01T03:34:44.182Z,16.08
2022-11-01T03:37:14.006Z,16.17
2022-11-01T03:39:45.914Z,14.57
2022-11-01T03:42:19.936Z,14.23
2022-11-01T03:44:51.551Z,15.10
2022-11-01T03:49:49.329Z,15.07
2022-11-01T03:52:17.488Z,14.20
2022-11-01T03:54:45.697Z,14.85
2022-11-01T03:57:13.937Z,15.82
2022-11-01T03:59:42.412Z,14.63
2022-11-01T04:04:43.749Z,19.20
2022-11-01T04:07:13.503Z,19.67
2022-11-01T04:09:41.701Z,20.55
2022-11-01T04:12:09.936Z,25.27
2022-11-01T04:14:55.623Z,19.73
2022-11-01T04:17:41.109Z,22.55
2022-11-01T04:20:27.801Z,19.00
2022-11-01T04:22:57.365Z,21.23
2022-11-01T04:25:25.590Z,20.85
2022-11-01T04:27:56.500Z,23.05
2022-11-01T04:30:25.173Z,22.65
2022-11-01T04:32:53.586Z,24.42
2022-11-01T04:35:22.211Z,23.70
2022-11-01T04:37:56.508Z,21.92
2022-11-01T04:40:26.973Z,24.00
2022-11-01T04:42:55.120Z,22.27
2022-11-01T04:45:23.328Z,21.30
2022-11-01T04:48:02.746Z,21.00
2022-11-01T04:50:31.508Z,19.13
2022-11-01T04:53:00.789Z,20.83
2022-11-01T04:55:30.806Z,21.67
2022-11-01T04:57:59.320Z,19.50
2022-11-01T05:00:28.125Z,19.40
2022-11-01T05:03:02.938Z,20.95
2022-11-01T05:05:31.770Z,21.58
2022-11-01T05:08:03.874Z,17.33
2022-11-01T05:10:34.315Z,20.85
2022-11-01T05:13:03.857Z,19.98
2022-11-01T05:15:32.340Z,23.20
2022-11-01T05:18:01.947Z,23.13
2022-11-01T05:20:30.595Z,24.60
2022-11-01T05:23:00.719Z,21.40
2022-11-01T05:25:31.529Z,22.98
2022-11-01T05:28:07.162Z,21.08
2022-11-01T05:30:35.785Z,21.50
2022-11-01T05:33:05.708Z,20.25
2022-11-01T05:35:35.911Z,17.23
2022-11-01T05:38:05.385Z,16.95
2022-11-01T05:40:34.528Z,11.90
2022-11-01T05:43:04.616Z,10.52
2022-11-01T05:45:33.073Z,11.43
2022-11-01T05:48:04.206Z,10.00
2022-11-01T05:50:32.586Z,7.97
2022-11-01T05:53:07.132Z,8.30
2022-11-01T05:55:35.731Z,9.40
2022-11-01T05:58:05.947Z,7.35
2022-11-01T06:00:35.400Z,8.38
2022-11-01T06:03:04.367Z,8.88
2022-11-01T06:05:33.506Z,8.45
2022-11-01T06:08:04.205Z,9.15
2022-11-01T06:10:33.567Z,8.20
2022-11-01T06:13:02.021Z,11.20
2022-11-01T06:15:34.350Z,10.60
2022-11-01T06:18:06.044Z,10.30
2022-11-01T06:20:36.896Z,12.10
2022-11-01T06:23:10.968Z,8.73
2022-11-01T06:25:39.410Z,9.45
2022-11-01T06:28:07.769Z,7.82
2022-11-01T06:30:39.020Z,8.20
2022-11-01T06:33:09.596Z,7.35
2022-11-01T06:35:37.860Z,9.88
2022-11-01T06:38:07.771Z,9.10
2022-11-01T06:40:36.143Z,12.95
2022-11-01T06:43:06.568Z,15.07
2022-11-01T06:45:36.571Z,13.60
2022-11-01T06:48:05.328Z,11.15
2022-11-01T06:50:34.066Z,10.48
2022-11-01T06:53:02.552Z,9.40
2022-11-01T06:55:31.149Z,9.10
2022-11-01T06:58:01.428Z,10.63
2022-11-01T07:00:31.014Z,11.43
2022-11-01T07:03:01.990Z,8.95
2022-11-01T07:05:34.340Z,11.18
2022-11-01T07:08:07.365Z,10.82
2022-11-01T07:10:36.879Z,11.13
2022-11-01T07:13:06.805Z,11.35
2022-11-01T07:15:35.366Z,9.23
2022-11-01T07:18:07.824Z,10.63
2022-11-01T07:20:41.919Z,8.90
2022-11-01T07:23:13.088Z,7.45
2022-11-01T07:25:41.665Z,9.57
2022-11-01T07:28:10.568Z,9.05
2022-11-01T07:30:39.329Z,6.95
2022-11-01T07:33:08.928Z,7.60
2022-11-01T07:35:37.462Z,7.25
2022-11-01T07:38:09.769Z,11.57
2022-11-01T07:40:41.257Z,11.48
2022-11-01T07:43:09.712Z,11.30
2022-11-01T07:45:38.378Z,13.63
2022-11-01T07:48:10.456Z,16.10
2022-11-01T07:50:40.104Z,13.63
2022-11-01T07:53:09.700Z,13.82
2022-11-01T07:55:38.727Z,16.02
2022-11-01T07:58:07.913Z,13.25
2022-11-01T08:00:36.490Z,21.30
2022-11-01T08:03:06.337Z,18.38
2022-11-01T08:05:36.797Z,18.38
2022-11-01T08:08:06.392Z,20.00
2022-11-01T08:10:36.021Z,8.57
2022-11-01T08:13:05.676Z,9.65
2022-11-01T08:15:34.852Z,7.72
2022-11-01T08:18:03.829Z,7.15
2022-11-01T08:20:32.431Z,6.60
2022-11-01T08:23:02.408Z,6.22
2022-11-01T08:25:31.261Z,7.38
2022-11-01T08:28:03.741Z,7.70
2022-11-01T08:30:32.375Z,5.82
2022-11-01T08:33:01.658Z,5.32
2022-11-01T08:35:30.632Z,7.43
2022-11-01T08:37:59.273Z,8.93
2022-11-01T08:40:29.596Z,6.15
2022-11-01T08:42:58.401Z,5.50
2022-11-01T08:45:27.706Z,5.32
2022-11-01T08:48:00.334Z,3.60
2022-11-01T08:50:29.604Z,3.88
2022-11-01T08:52:57.998Z,4.95
2022-11-01T08:55:26.625Z,3.85
2022-11-01T08:58:00.452Z,5.13
2022-11-01T09:00:29.505Z,5.45
2022-11-01T09:02:57.961Z,7.13
2022-11-01T09:05:26.301Z,3.42
2022-11-01T09:07:59.058Z,2.95
2022-11-01T09:10:28.599Z,4.07
2022-11-01T09:12:58.189Z,3.28
2022-11-01T09:15:26.499Z,3.80
2022-11-01T09:17:54.705Z,2.92
2022-11-01T09:20:24.167Z,3.95
2022-11-01T09:22:53.477Z,3.15
2022-11-01T09:25:21.731Z,3.63
2022-11-01T09:27:50.028Z,3.05
2022-11-01T09:30:21.604Z,3.13
2022-11-01T09:32:50.390Z,4.50
2022-11-01T09:35:19.223Z,4.45
2022-11-01T09:37:47.395Z,4.28
2022-11-01T09:40:16.851Z,4.88
2022-11-01T09:42:46.501Z,5.15
2022-11-01T09:45:20.832Z,3.65
2022-11-01T09:47:51.529Z,4.25
2022-11-01T09:50:23.631Z,3.80
2022-11-01T09:52:53.269Z,3.85
2022-11-01T09:55:35.479Z,4.30
2022-11-01T09:58:16.508Z,3.47
2022-11-01T10:00:54.429Z,3.85
2022-11-01T10:03:39.400Z,4.85
2022-11-01T10:06:16.798Z,5.70
2022-11-01T10:08:56.651Z,4.80
2022-11-01T10:11:41.793Z,3.85
2022-11-01T10:14:20.168Z,4.20
2022-11-01T10:17:00.468Z,7.47
2022-11-01T10:19:35.388Z,4.53
2022-11-01T10:22:08.771Z,4.15
2022-11-01T10:24:41.318Z,4.50
2022-11-01T10:27:18.445Z,5.25
2022-11-01T10:29:55.968Z,5.32
2022-11-01T10:32:32.213Z,4.35
2022-11-01T10:35:04.389Z,3.88
2022-11-01T10:37:47.194Z,3.33
2022-11-01T10:40:33.177Z,4.80
2022-11-01T10:43:02.498Z,4.32
2022-11-01T10:45:31.312Z,4.20
2022-11-01T10:48:01.404Z,6.88
2022-11-01T10:50:31.930Z,5.47
2022-11-01T10:53:03.355Z,4.53
2022-11-01T10:55:40.746Z,6.28
2022-11-01T10:58:16.913Z,2.53
2022-11-01T11:00:47.363Z,4.18
2022-11-01T11:03:22.452Z,3.77
2022-11-01T11:05:52.989Z,3.80
2022-11-01T11:08:24.144Z,2.65
2022-11-01T11:10:53.183Z,5.07
2022-11-01T11:13:24.443Z,5.07
2022-11-01T11:15:56.161Z,3.92
2022-11-01T11:18:30.438Z,3.70
2022-11-01T11:21:01.155Z,3.22
2022-11-01T11:23:33.215Z,5.22
2022-11-01T11:26:06.948Z,2.85
2022-11-01T11:28:42.650Z,2.63
2022-11-01T11:31:18.598Z,4.43
2022-11-01T11:33:54.722Z,4.85
2022-11-01T11:36:29.879Z,5.45
2022-11-01T11:39:00.535Z,6.90
2022-11-01T11:41:31.433Z,3.55
2022-11-01T11:44:00.223Z,4.47
2022-11-01T11:46:28.707Z,3.85
2022-11-01T11:49:01.465Z,4.40
2022-11-01T11:51:31.392Z,3.25
2022-11-01T11:54:21.907Z,2.40
2022-11-01T11:56:53.571Z,2.88
2022-11-01T11:59:27.198Z,4.05
2022-11-01T12:02:01.982Z,4.00
2022-11-01T12:04:40.486Z,2.83
2022-11-01T12:07:22.692Z,4.03
2022-11-01T12:09:50.997Z,3.97
2022-11-01T12:12:21.417Z,3.65
2022-11-01T12:14:51.580Z,5.00
2022-11-01T12:17:45.771Z,3.90
2022-11-01T12:20:18.583Z,4.72
2022-11-01T12:22:51.581Z,3.70
2022-11-01T12:25:23.403Z,4.53
2022-11-01T12:28:00.885Z,4.03
2022-11-01T12:30:33.992Z,3.53
2022-11-01T12:33:08.504Z,4.03
2022-11-01T12:35:44.095Z,4.70
2022-11-01T12:38:33.360Z,5.18
2022-11-01T12:41:06.880Z,5.50
2022-11-01T12:43:46.377Z,3.42
2022-11-01T12:46:21.090Z,6.10
2022-11-01T12:48:54.699Z,2.65
2022-11-01T12:51:27.239Z,3.13
2022-11-01T12:54:00.496Z,3.78
2022-11-01T12:56:28.917Z,3.67
2022-11-01T12:58:57.981Z,4.90
2022-11-01T13:01:36.149Z,4.03
2022-11-01T13:04:14.304Z,4.25
2022-11-01T13:07:05.305Z,2.95
2022-11-01T13:09:44.273Z,4.35
2022-11-01T13:12:24.072Z,4.22
2022-11-01T13:15:00.407Z,3.60
2022-11-01T13:17:37.082Z,4.03
2022-11-01T13:20:19.355Z,3.70
2022-11-01T13:22:56.851Z,5.22
2022-11-01T13:25:37.052Z,2.65
2022-11-01T13:28:15.292Z,4.35
2022-11-01T13:30:54.018Z,5.13
2022-11-01T13:33:31.722Z,5.70
2022-11-01T13:36:06.925Z,5.82
2022-11-01T13:38:43.486Z,5.38
2022-11-01T13:41:22.206Z,4.78
2022-11-01T13:43:55.759Z,6.60
2022-11-01T13:46:45.207Z,4.40
2022-11-01T13:49:39.795Z,2.10
2022-11-01T13:52:16.455Z,4.82
2022-11-01T13:54:54.115Z,2.42
2022-11-01T13:57:26.102Z,2.90
2022-11-01T13:59:56.962Z,3.53
2022-11-01T14:02:54.104Z,5.78
2022-11-01T14:05:22.746Z,2.78
2022-11-01T14:08:14.585Z,3.10
2022-11-01T14:10:52.232Z,4.55
2022-11-01T14:13:32.713Z,5.05
2022-11-01T14:16:19.881Z,3.95
2022-11-01T14:19:20.313Z,2.70
2022-11-01T14:21:53.166Z,5.28
2022-11-01T14:24:34.795Z,4.13
2022-11-01T14:27:22.818Z,5.53
2022-11-01T14:29:52.764Z,4.28
2022-11-01T14:32:24.280Z,4.18
2022-11-01T14:37:40.930Z,6.13
2022-11-01T14:40:30.545Z,2.85
2022-11-01T14:43:05.394Z,4.15
2022-11-01T14:45:37.436Z,4.05
2022-11-01T14:48:17.837Z,2.58
2022-11-01T14:50:53.781Z,3.60
2022-11-01T14:53:27.901Z,3.58
2022-11-01T14:56:08.131Z,3.42
2022-11-01T14:58:37.762Z,3.80
2022-11-01T15:01:07.860Z,2.78
2022-11-01T15:03:36.173Z,4.93
2022-11-01T15:06:04.826Z,4.57
2022-11-01T15:08:38.741Z,5.32
2022-11-01T15:11:07.622Z,3.70
2022-11-01T15:13:42.369Z,5.00
2022-11-01T15:16:17.288Z,4.07
2022-11-01T15:18:50.002Z,4.43
2022-11-01T15:21:24.278Z,3.70
2022-11-01T15:23:57.169Z,4.13
2022-11-01T15:26:28.119Z,4.07
2022-11-01T15:29:00.177Z,3.47
2022-11-01T15:31:29.263Z,3.17
2022-11-01T15:33:59.816Z,3.72
2022-11-01T15:36:31.735Z,3.00
2022-11-01T15:39:01.677Z,3.08
2022-11-01T15:41:31.827Z,3.03
2022-11-01T15:44:02.851Z,3.22
2022-11-01T15:46:34.489Z,5.28
2022-11-01T15:49:07.142Z,2.83
2022-11-01T15:51:43.863Z,5.88
2022-11-01T15:54:29.378Z,2.67
2022-11-01T15:57:04.540Z,3.65
2022-11-01T15:59:39.485Z,3.63
2022-11-01T16:02:17.825Z,3.88
2022-11-01T16:04:48.160Z,2.97
2022-11-01T16:07:21.628Z,3.50
2022-11-01T16:09:52.679Z,5.20
2022-11-01T16:12:23.618Z,3.40
2022-11-01T16:14:56.493Z,5.18
2022-11-01T16:17:31.810Z,4.28
2022-11-01T16:20:00.153Z,4.90
2022-11-01T16:22:36.878Z,4.40
2022-11-01T16:25:20.394Z,5.70
2022-11-01T16:28:01.046Z,6.07
2022-11-01T16:30:48.153Z,7.00
2022-11-01T16:33:25.070Z,6.20
2022-11-01T16:35:55.573Z,6.28
2022-11-01T16:38:29.970Z,6.95
2022-11-01T16:41:00.197Z,5.38
2022-11-01T16:43:31.029Z,7.53
2022-11-01T16:46:01.347Z,7.00
2022-11-01T16:48:31.997Z,6.88
2022-11-01T16:51:01.901Z,6.37
2022-11-01T16:53:31.589Z,6.20
2022-11-01T16:56:34.539Z,5.70
2022-11-01T16:58:59.676Z,5.35
2022-11-01T17:04:04.072Z,3.50
2022-11-01T17:06:37.632Z,3.97
2022-11-01T17:09:11.784Z,7.13
2022-11-01T17:11:40.060Z,3.83
2022-11-01T17:14:08.211Z,2.67
2022-11-01T17:16:38.333Z,4.45
2022-11-01T17:19:07.894Z,4.15
2022-11-01T17:21:40.350Z,4.55
2022-11-01T17:24:10.465Z,5.30
2022-11-01T17:26:40.885Z,5.97
2022-11-01T17:29:11.004Z,6.00
2022-11-01T17:31:40.866Z,6.95
2022-11-01T17:34:09.120Z,7.90
2022-11-01T17:36:39.115Z,5.55
2022-11-01T17:39:10.479Z,9.98
2022-11-01T17:41:38.806Z,9.13
2022-11-01T17:44:07.404Z,7.63
2022-11-01T17:46:35.673Z,9.05
2022-11-01T17:49:06.529Z,7.55
2022-11-01T17:51:35.111Z,7.25
2022-11-01T17:54:04.119Z,8.10
2022-11-01T17:56:32.632Z,11.02
2022-11-01T17:59:01.739Z,7.50
2022-11-01T18:01:30.258Z,8.95
2022-11-01T18:03:58.571Z,7.47
2022-11-01T18:06:28.205Z,13.35
2022-11-01T18:08:56.447Z,12.10
2022-11-01T18:11:47.813Z,13.32
2022-11-01T18:14:20.940Z,13.40
2022-11-01T18:16:50.681Z,10.70
2022-11-01T18:19:43.712Z,11.38
2022-11-01T18:22:22.746Z,8.23
2022-11-01T18:24:59.846Z,9.23
2022-11-01T18:27:35.079Z,7.72
2022-11-01T18:30:08.737Z,14.00
2022-11-01T18:32:41.494Z,8.05
2022-11-01T18:35:24.003Z,7.97
2022-11-01T18:38:08.910Z,8.93
2022-11-01T18:40:48.730Z,12.15
2022-11-01T18:43:18.436Z,9.77
2022-11-01T18:46:11.566Z,7.95
2022-11-01T18:48:35.190Z,7.93
2022-11-01T18:51:06.002Z,13.68
2022-11-01T18:53:37.079Z,9.63
2022-11-01T18:56:19.633Z,14.35
2022-11-01T18:58:47.953Z,10.27
2022-11-01T19:01:19.599Z,12.73
2022-11-01T19:03:49.136Z,12.38
2022-11-01T19:06:20.950Z,8.77
2022-11-01T19:08:53.885Z,11.00
2022-11-01T19:11:23.168Z,7.35
2022-11-01T19:13:52.462Z,7.95
2022-11-01T19:16:22.290Z,8.38
2022-11-01T19:18:52.493Z,5.18
2022-11-01T19:21:22.740Z,5.60
2022-11-01T19:23:54.117Z,6.88
2022-11-01T19:26:26.074Z,5.68
2022-11-01T19:28:55.432Z,5.95
2022-11-01T19:31:30.537Z,6.70
2022-11-01T19:34:01.877Z,7.22
2022-11-01T19:39:22.893Z,8.57
2022-11-01T19:41:52.488Z,7.80
2022-11-01T19:44:24.490Z,11.48
2022-11-01T19:46:58.685Z,10.82
2022-11-01T19:49:29.757Z,11.80
2022-11-01T19:52:17.026Z,9.82
2022-11-01T19:54:48.757Z,5.80
2022-11-01T19:57:27.407Z,8.45
2022-11-01T19:59:59.107Z,5.93
2022-11-01T20:02:27.774Z,7.53
2022-11-01T20:05:01.247Z,6.80
2022-11-01T20:07:30.771Z,7.30
2022-11-01T20:10:00.533Z,8.93
2022-11-01T20:12:28.877Z,5.40
2022-11-01T20:14:57.255Z,8.35
2022-11-01T20:17:26.478Z,7.80
2022-11-01T20:19:55.306Z,8.02
2022-11-01T20:22:23.555Z,7.05
2022-11-01T20:24:51.883Z,5.82
2022-11-01T20:27:21.462Z,8.73
2022-11-01T20:29:49.723Z,7.13
2022-11-01T20:32:17.895Z,7.68
2022-11-01T20:34:46.105Z,6.70
2022-11-01T20:37:28.079Z,8.68
2022-11-01T20:39:56.956Z,9.00
2022-11-01T20:42:26.534Z,8.55
2022-11-01T20:44:54.711Z,7.68
2022-11-01T20:47:22.906Z,5.72
2022-11-01T20:49:54.315Z,5.53
2022-11-01T20:52:39.939Z,7.95
2022-11-01T20:55:10.547Z,9.38
2022-11-01T20:57:40.313Z,9.40
2022-11-01T21:00:13.104Z,7.15
2022-11-01T21:02:42.031Z,6.22
2022-11-01T21:05:19.381Z,8.50
2022-11-01T21:07:48.252Z,6.75
2022-11-01T21:10:31.841Z,9.07
2022-11-01T21:13:03.678Z,6.53
2022-11-01T21:15:37.417Z,8.00
2022-11-01T21:18:44.156Z,5.28
2022-11-01T21:21:32.530Z,5.22
2022-11-01T21:24:03.162Z,7.78
2022-11-01T21:26:33.148Z,4.37
2022-11-01T21:29:06.879Z,5.05
2022-11-01T21:31:38.973Z,6.45
2022-11-01T21:34:24.629Z,6.47
2022-11-01T21:36:53.465Z,9.23
2022-11-01T21:39:25.428Z,8.10
2022-11-01T21:41:56.720Z,8.25
2022-11-01T21:44:32.067Z,8.50
2022-11-01T21:47:12.643Z,6.53
2022-11-01T21:49:41.155Z,7.50
2022-11-01T21:54:40.198Z,7.53
2022-11-01T21:57:10.576Z,8.80
2022-11-01T21:59:41.030Z,6.38
2022-11-01T22:02:12.153Z,8.13
2022-11-01T22:04:41.071Z,5.95
2022-11-01T22:07:11.171Z,7.40
2022-11-01T22:09:39.637Z,5.50
2022-11-01T22:12:09.053Z,6.20
2022-11-01T22:14:37.590Z,6.45
2022-11-01T22:17:07.306Z,5.57
2022-11-01T22:19:35.644Z,9.05
2022-11-01T22:22:04.060Z,6.97
2022-11-01T22:24:32.429Z,8.63
2022-11-01T22:27:00.816Z,5.07
2022-11-01T22:29:29.092Z,6.20
2022-11-01T22:31:57.295Z,6.65
2022-11-01T22:34:26.884Z,5.63
2022-11-01T22:36:55.332Z,7.35
2022-11-01T22:39:27.116Z,7.82
2022-11-01T22:41:56.140Z,7.05
2022-11-01T22:44:27.613Z,8.63
2022-11-01T22:46:59.207Z,8.85
2022-11-01T22:49:31.769Z,6.82
2022-11-01T22:52:04.328Z,7.85
2022-11-01T22:54:38.209Z,5.88
2022-11-01T22:57:14.646Z,5.70
2022-11-01T22:59:46.319Z,7.72
2022-11-01T23:05:20.046Z,6.25
2022-11-01T23:07:49.984Z,5.30
2022-11-01T23:10:29.821Z,5.70
2022-11-01T23:13:19.058Z,7.22
2022-11-01T23:15:47.554Z,7.57
2022-11-01T23:18:22.560Z,5.95
2022-11-01T23:20:56.344Z,8.75
2022-11-01T23:23:25.461Z,5.47
2022-11-01T23:25:55.659Z,9.48
2022-11-01T23:28:25.388Z,6.40
2022-11-01T23:30:53.903Z,7.63
2022-11-01T23:33:24.469Z,7.20
2022-11-01T23:35:57.421Z,8.57
2022-11-01T23:38:36.890Z,10.02
2022-11-01T23:41:05.724Z,9.93
2022-11-01T23:43:37.453Z,11.65
2022-11-01T23:46:06.552Z,8.95
2022-11-01T23:48:41.487Z,8.30
2022-11-01T23:51:18.573Z,11.38
2022-11-01T23:53:48.274Z,9.10
2022-11-01T23:56:20.229Z,10.23
2022-11-01T23:58:54.457Z,9.02
